Plainfield, Iowa
Current Conditions -  °F | °C
As of 8:35 AM on Thursday 23 Oct 2014 (Local Time) from KCCY Reporting Station
Haze Haze  
Wind Chill: 46°   Ceiling: 1300
Heat Index: 48°   Visibility: 3mi
Dew Point: 46°   Wind: 6mph
Humidity: 93%   Direction: 140°SE
Pressure: 30.04"   Gusts: NA
Location:  42.85°N, 92.54°W
Report Text: KCCY 231335Z AUTO 14005KT 3SM BR FEW006 OVC013 09/08 A3004 RMK AO2
Loading
Personal Weather Stations






























Interactive Weather Map
Tropical Storm Tracking
New forecast layout! Learn more

10-Day Weather Forecast

Advertisements
Track Severe Weather on mobile